Time;durP1;ratioP1;P1;durP2;ratioP2;P2;SDS_P1;SDS_P2;PMS_P1;PMS_P2;Temp;Humidity;BMP_temperature;BMP_pressure;BME280_temperature;BME280_humidity;BME280_pressure;Samples;Min_cycle;Max_cycle;Signal;HPM_P1;HPM_P2
2023/03/03 00:01:34;;;;;;;48.25;25.75;;;5.40;74.80;;;;;;5053419;28;20108;-68
2023/03/03 00:03:59;;;;;;;51.53;25.85;;;5.40;74.70;;;;;;5053273;28;20404;-68
2023/03/03 00:06:25;;;;;;;46.30;25.80;;;5.40;74.70;;;;;;5053491;28;20032;-68
2023/03/03 00:08:51;;;;;;;53.30;26.17;;;5.40;75.10;;;;;;5052992;28;20444;-68
2023/03/03 00:11:17;;;;;;;45.70;25.65;;;5.40;74.80;;;;;;5035669;28;20522;-68
2023/03/03 00:13:51;;;;;;;50.47;26.08;;;5.30;74.80;;;;;;5053019;28;20033;-71
2023/03/03 00:16:24;;;;;;;47.63;22.92;;;5.40;74.40;;;;;;5053286;28;20070;-68
2023/03/03 00:18:51;;;;;;;41.97;23.02;;;5.40;75.20;;;;;;5052598;28;20033;-68
2023/03/03 00:21:24;;;;;;;41.97;22.65;;;5.30;74.80;;;;;;5053360;28;20071;-68
2023/03/03 00:23:51;;;;;;;36.47;22.67;;;5.30;75.00;;;;;;5052906;28;20091;-68
2023/03/03 00:26:29;;;;;;;47.40;25.42;;;5.30;75.40;;;;;;5053108;28;20025;-68
2023/03/03 00:28:58;;;;;;;42.47;23.73;;;5.20;75.50;;;;;;5052786;28;20526;-68
2023/03/03 00:31:34;;;;;;;40.10;22.42;;;5.20;75.50;;;;;;5053078;28;20427;-68
2023/03/03 00:34:24;;;;;;;43.45;23.38;;;5.20;75.60;;;;;;5052541;28;20434;-68
2023/03/03 00:36:56;;;;;;;46.33;25.63;;;5.10;75.90;;;;;;5053090;28;20478;-68
2023/03/03 00:39:24;;;;;;;44.17;23.80;;;5.10;76.30;;;;;;5052608;28;20049;-68
2023/03/03 00:41:51;;;;;;;40.05;22.42;;;5.10;76.50;;;;;;5051132;28;20021;-68
2023/03/03 00:44:50;;;;;;;51.78;24.40;;;5.10;76.30;;;;;;5053011;28;20465;-68
2023/03/03 00:47:16;;;;;;;42.55;22.98;;;5.10;76.70;;;;;;5035231;28;20354;-68
2023/03/03 00:49:42;;;;;;;44.22;23.67;;;5.00;76.50;;;;;;5052841;28;20043;-68
2023/03/03 00:52:17;;;;;;;44.22;23.95;;;5.00;77.00;;;;;;5052498;28;20112;-68
2023/03/03 00:54:43;;;;;;;39.67;23.05;;;5.00;77.10;;;;;;5052766;28;20064;-68
2023/03/03 00:57:11;;;;;;;41.17;22.40;;;5.00;77.10;;;;;;5052543;28;20449;-68
2023/03/03 00:59:38;;;;;;;42.97;24.88;;;5.00;77.10;;;;;;5052556;28;20035;-68
2023/03/03 01:02:04;;;;;;;43.75;22.70;;;5.00;77.20;;;;;;5051991;28;20029;-68
2023/03/03 01:04:29;;;;;;;45.78;24.40;;;5.00;77.20;;;;;;5052493;28;20029;-68
2023/03/03 01:06:55;;;;;;;43.72;23.35;;;4.90;77.10;;;;;;5052046;28;20025;-68
2023/03/03 01:09:21;;;;;;;41.15;22.98;;;4.90;77.40;;;;;;5052685;28;20398;-67
2023/03/03 01:11:48;;;;;;;38.83;22.77;;;4.90;77.50;;;;;;5052450;28;20078;-70
2023/03/03 01:14:13;;;;;;;42.30;24.10;;;4.90;77.30;;;;;;5053909;28;20508;-66
2023/03/03 01:16:40;;;;;;;46.08;23.70;;;4.90;77.50;;;;;;5053313;28;20029;-66
2023/03/03 01:19:06;;;;;;;42.65;23.65;;;4.90;77.70;;;;;;5052049;28;20025;-67
2023/03/03 01:21:32;;;;;;;46.22;23.75;;;4.80;77.70;;;;;;5052966;28;20029;-68
2023/03/03 01:23:57;;;;;;;49.10;25.27;;;4.80;78.00;;;;;;5052177;28;20460;-68
2023/03/03 01:26:23;;;;;;;50.35;24.85;;;4.80;78.20;;;;;;5052184;28;20397;-66
2023/03/03 01:28:49;;;;;;;44.53;24.45;;;4.80;78.20;;;;;;5052202;28;20465;-67
2023/03/03 01:31:14;;;;;;;43.28;24.00;;;4.80;78.50;;;;;;5052317;28;20056;-67
2023/03/03 01:33:40;;;;;;;38.70;22.27;;;4.70;78.50;;;;;;5052718;28;20029;-66
2023/03/03 01:36:06;;;;;;;43.78;24.27;;;4.80;78.70;;;;;;5052334;28;20537;-66
2023/03/03 01:38:35;;;;;;;47.63;24.55;;;4.80;78.30;;;;;;5051736;28;20504;-66
2023/03/03 01:41:01;;;;;;;43.60;24.33;;;4.70;79.20;;;;;;5052239;28;20029;-66
2023/03/03 01:43:29;;;;;;;48.38;24.75;;;4.70;78.90;;;;;;5052477;28;20120;-67
2023/03/03 01:45:56;;;;;;;43.60;23.88;;;4.70;78.70;;;;;;5051724;28;20392;-67
2023/03/03 01:48:33;;;;;;;47.88;24.55;;;4.70;78.70;;;;;;5052411;28;20021;-67
2023/03/03 01:51:19;;;;;;;41.50;23.05;;;4.70;79.20;;;;;;5044136;28;20029;-66
2023/03/03 01:53:50;;;;;;;42.80;24.05;;;4.70;79.40;;;;;;5036037;28;20026;-67
2023/03/03 01:56:16;;;;;;;40.20;22.60;;;4.70;78.40;;;;;;5036147;28;20576;-66
2023/03/03 01:58:50;;;;;;;39.88;22.48;;;4.60;78.40;;;;;;5035825;28;20112;-67
2023/03/03 02:01:25;;;;;;;43.45;23.13;;;4.60;78.70;;;;;;5035856;28;20492;-67
2023/03/03 02:03:52;;;;;;;45.30;23.45;;;4.60;79.10;;;;;;5035574;28;20099;-68
2023/03/03 02:06:22;;;;;;;37.90;22.08;;;4.60;79.00;;;;;;5036385;28;20033;-67
2023/03/03 02:09:16;;;;;;;39.40;20.45;;;4.50;79.60;;;;;;5035992;28;20024;-67
2023/03/03 02:11:44;;;;;;;39.58;21.00;;;4.50;79.90;;;;;;5035972;28;20493;-66
2023/03/03 02:14:11;;;;;;;37.83;21.25;;;4.60;79.90;;;;;;5051741;28;20108;-66
2023/03/03 02:16:38;;;;;;;33.72;20.10;;;4.50;79.50;;;;;;5055693;28;20135;-67
2023/03/03 02:19:16;;;;;;;36.10;21.00;;;4.60;80.50;;;;;;5055250;28;20029;-68
2023/03/03 02:21:41;;;;;;;33.28;20.15;;;4.60;79.70;;;;;;5055768;28;20132;-68
2023/03/03 02:24:33;;;;;;;38.67;19.80;;;4.60;79.30;;;;;;5055062;28;20504;-68
2023/03/03 02:26:59;;;;;;;38.20;21.27;;;4.60;79.70;;;;;;5049966;28;20115;-68
2023/03/03 02:29:25;;;;;;;38.20;20.17;;;4.70;79.90;;;;;;5055473;28;20108;-67
2023/03/03 02:31:51;;;;;;;36.50;19.63;;;4.70;79.30;;;;;;5055427;28;20025;-68
2023/03/03 02:34:16;;;;;;;41.63;22.42;;;4.70;79.50;;;;;;5054639;28;20025;-68
2023/03/03 02:36:42;;;;;;;36.70;21.58;;;4.70;79.40;;;;;;5055357;28;20473;-68
2023/03/03 02:39:20;;;;;;;41.25;23.25;;;4.70;79.60;;;;;;5054557;28;20048;-68
2023/03/03 02:41:50;;;;;;;52.40;27.20;;;4.70;79.50;;;;;;5055341;28;20099;-67
2023/03/03 02:44:21;;;;;;;50.85;27.73;;;4.70;79.60;;;;;;5054895;28;20048;-68
2023/03/03 02:46:47;;;;;;;;;;;4.80;79.30;;;;;;5055668;28;20108;-68
2023/03/03 02:49:19;;;;;;;53.90;28.88;;;4.80;78.40;;;;;;5054699;28;19936;-68
2023/03/03 02:51:45;;;;;;;45.60;28.05;;;4.90;78.40;;;;;;5055171;28;20025;-68
2023/03/03 02:54:13;;;;;;;49.60;29.08;;;4.80;78.30;;;;;;5054501;28;20036;-67
2023/03/03 02:56:39;;;;;;;54.55;29.63;;;4.80;78.40;;;;;;5054906;28;20045;-67
2023/03/03 02:59:05;;;;;;;51.65;27.35;;;4.90;78.60;;;;;;5054620;28;20025;-67
2023/03/03 03:01:35;;;;;;;54.50;29.88;;;4.90;78.30;;;;;;5054844;28;20053;-67
2023/03/03 03:04:05;;;;;;;50.23;29.17;;;5.00;77.90;;;;;;5053068;28;20028;-68
2023/03/03 03:06:31;;;;;;;59.42;30.00;;;5.00;77.60;;;;;;5054970;28;20037;-67
2023/03/03 03:08:56;;;;;;;60.95;30.90;;;5.00;77.90;;;;;;5054127;28;20033;-68
2023/03/03 03:11:22;;;;;;;53.00;30.52;;;4.90;77.90;;;;;;5054788;28;20025;-67
2023/03/03 03:13:48;;;;;;;55.78;30.45;;;4.90;77.90;;;;;;5054514;28;20028;-68
2023/03/03 03:16:13;;;;;;;57.33;31.05;;;4.90;77.80;;;;;;5054225;28;20033;-67
2023/03/03 03:18:39;;;;;;;53.53;29.00;;;4.90;78.10;;;;;;5054391;28;20021;-67
2023/03/03 03:21:07;;;;;;;58.33;31.92;;;4.90;78.30;;;;;;5054015;28;20152;-67
2023/03/03 03:23:33;;;;;;;59.28;32.97;;;4.90;77.90;;;;;;5054569;28;20179;-67
2023/03/03 03:25:59;;;;;;;59.00;34.15;;;4.90;77.10;;;;;;5054082;28;20116;-67
2023/03/03 03:28:25;;;;;;;62.63;34.13;;;4.90;76.80;;;;;;5054480;28;20096;-67
2023/03/03 03:30:50;;;;;;;63.20;34.38;;;4.90;76.30;;;;;;5054153;28;20056;-67
2023/03/03 03:33:16;;;;;;;58.70;32.78;;;4.90;76.30;;;;;;5054311;28;20065;-67
2023/03/03 03:35:45;;;;;;;58.22;33.15;;;4.90;76.40;;;;;;5054240;28;20473;-68
2023/03/03 03:38:12;;;;;;;62.20;33.42;;;4.90;75.70;;;;;;5053535;28;20056;-67
2023/03/03 03:40:38;;;;;;;60.40;33.53;;;4.90;75.90;;;;;;5053989;28;20104;-67
2023/03/03 03:43:04;;;;;;;58.90;33.75;;;4.90;75.80;;;;;;5053833;28;20021;-68
2023/03/03 03:45:30;;;;;;;60.40;33.97;;;4.90;76.00;;;;;;5043906;28;20029;-69
2023/03/03 03:47:55;;;;;;;60.25;32.65;;;4.90;76.10;;;;;;5034150;28;20033;-68
2023/03/03 03:50:21;;;;;;;61.33;33.67;;;4.80;76.00;;;;;;5033722;28;20052;-68
2023/03/03 03:52:47;;;;;;;64.65;36.17;;;4.80;76.10;;;;;;5033898;28;20067;-67
2023/03/03 03:55:13;;;;;;;64.18;35.20;;;4.80;76.00;;;;;;5033305;28;20116;-67
2023/03/03 03:57:40;;;;;;;60.78;34.35;;;4.80;76.60;;;;;;5033886;28;20037;-67
2023/03/03 04:00:07;;;;;;;67.43;35.35;;;4.80;76.70;;;;;;5015843;28;20076;-68
2023/03/03 04:02:34;;;;;;;64.32;35.55;;;4.70;76.40;;;;;;5033766;28;20036;-67
2023/03/03 04:05:00;;;;;;;64.43;34.95;;;4.70;76.40;;;;;;5046717;28;20032;-68
2023/03/03 04:07:25;;;;;;;60.28;33.63;;;4.60;76.70;;;;;;5053611;28;20162;-68
2023/03/03 04:09:51;;;;;;;66.38;34.58;;;4.60;76.70;;;;;;5053477;28;20063;-67
2023/03/03 04:12:17;;;;;;;68.70;36.22;;;4.60;77.00;;;;;;5053066;28;20071;-67
2023/03/03 04:14:43;;;;;;;63.22;35.33;;;4.50;77.40;;;;;;5035571;28;20036;-67
2023/03/03 04:17:18;;;;;;;61.72;34.22;;;4.50;77.40;;;;;;5052910;28;20057;-67
2023/03/03 04:19:44;;;;;;;56.17;32.78;;;4.50;77.60;;;;;;5053676;28;20428;-68
2023/03/03 04:22:11;;;;;;;57.15;31.10;;;4.50;77.70;;;;;;5053043;28;20025;-68
2023/03/03 04:24:37;;;;;;;49.97;27.38;;;4.50;78.00;;;;;;5053137;28;20025;-68
2023/03/03 04:27:03;;;;;;;46.35;25.02;;;4.50;77.70;;;;;;5035070;28;20116;-68
2023/03/03 04:29:28;;;;;;;39.72;21.75;;;4.50;77.90;;;;;;5053078;28;20024;-68
2023/03/03 04:31:54;;;;;;;38.72;20.23;;;4.40;77.40;;;;;;5053269;28;20024;-67
2023/03/03 04:34:20;;;;;;;36.97;20.58;;;4.40;78.30;;;;;;5034940;28;20433;-68
2023/03/03 04:36:46;;;;;;;35.20;20.35;;;4.40;78.20;;;;;;5053065;28;20064;-67
2023/03/03 04:39:12;;;;;;;38.60;20.85;;;4.40;78.20;;;;;;5052283;28;20052;-68
2023/03/03 04:41:37;;;;;;;34.70;19.65;;;4.30;78.00;;;;;;5056089;28;20029;-68
2023/03/03 04:44:03;;;;;;;34.17;18.75;;;4.20;78.40;;;;;;5052865;28;20139;-69
2023/03/03 04:46:29;;;;;;;32.97;19.55;;;4.20;79.40;;;;;;5035361;28;20033;-68
2023/03/03 04:48:55;;;;;;;34.97;19.85;;;4.20;79.20;;;;;;5053213;28;20021;-68
2023/03/03 04:51:21;;;;;;;37.20;19.55;;;4.10;79.00;;;;;;5052590;28;20104;-68
2023/03/03 04:53:47;;;;;;;35.75;20.67;;;4.20;78.90;;;;;;5052668;28;20116;-66
2023/03/03 04:56:13;;;;;;;36.55;18.38;;;4.20;78.30;;;;;;5052136;28;20037;-68
2023/03/03 04:58:39;;;;;;;33.70;19.00;;;4.10;78.80;;;;;;5052476;28;20079;-68
2023/03/03 05:01:05;;;;;;;34.90;20.23;;;4.10;78.90;;;;;;5052169;28;20415;-71
2023/03/03 05:03:31;;;;;;;34.00;20.77;;;4.10;78.60;;;;;;5053103;28;20085;-68
2023/03/03 05:05:56;;;;;;;33.53;19.70;;;4.20;78.10;;;;;;5052768;28;20028;-68
2023/03/03 05:08:22;;;;;;;37.47;18.92;;;4.20;78.20;;;;;;5052058;28;20047;-68
2023/03/03 05:10:53;;;;;;;34.60;18.30;;;4.20;77.80;;;;;;5052823;28;20415;-68
2023/03/03 05:13:18;;;;;;;33.33;17.95;;;4.10;78.10;;;;;;5051882;28;20017;-68
2023/03/03 05:15:54;;;;;;;34.28;18.05;;;4.10;78.50;;;;;;5052612;28;20487;-68
2023/03/03 05:18:21;;;;;;;31.98;18.40;;;4.10;78.80;;;;;;5051996;28;20469;-68
2023/03/03 05:20:47;;;;;;;36.35;19.73;;;4.20;78.00;;;;;;5052607;28;20032;-68
2023/03/03 05:23:13;;;;;;;29.38;17.95;;;4.20;77.30;;;;;;5052098;28;20029;-68
2023/03/03 05:25:42;;;;;;;34.70;18.40;;;4.20;77.40;;;;;;5052672;28;20033;-68
2023/03/03 05:28:09;;;;;;;28.98;16.80;;;4.10;77.10;;;;;;5054927;28;20032;-69
2023/03/03 05:30:36;;;;;;;27.23;15.98;;;4.10;76.80;;;;;;5056512;28;20021;-68
2023/03/03 05:33:02;;;;;;;32.78;17.20;;;4.10;76.80;;;;;;5056630;28;20453;-67
2023/03/03 05:35:28;;;;;;;32.38;19.08;;;4.10;76.40;;;;;;5055642;28;20112;-67
2023/03/03 05:37:54;;;;;;;35.05;19.25;;;4.00;76.60;;;;;;5056640;28;20508;-67
2023/03/03 05:40:20;;;;;;;32.95;18.52;;;3.80;77.50;;;;;;5056358;28;20025;-67
2023/03/03 05:42:46;;;;;;;35.47;19.65;;;3.80;77.70;;;;;;5056198;28;20021;-67
2023/03/03 05:45:12;;;;;;;41.97;21.92;;;3.80;78.10;;;;;;5055989;28;20537;-67
2023/03/03 05:47:37;;;;;;;45.42;24.27;;;3.60;79.40;;;;;;5056049;28;20056;-66
2023/03/03 05:50:04;;;;;;;48.28;25.10;;;3.50;80.50;;;;;;5046717;28;20104;-68
2023/03/03 05:52:30;;;;;;;52.85;27.02;;;3.50;81.00;;;;;;5035752;28;20497;-67
2023/03/03 05:54:56;;;;;;;47.50;26.70;;;3.50;81.20;;;;;;5036248;28;20540;-67
2023/03/03 05:57:22;;;;;;;54.53;28.80;;;3.50;81.20;;;;;;5035727;28;20053;-67
2023/03/03 05:59:48;;;;;;;48.33;28.85;;;3.50;81.60;;;;;;5035834;28;20021;-68
2023/03/03 06:02:14;;;;;;;48.80;28.25;;;3.40;81.70;;;;;;5050653;28;20475;-66
2023/03/03 06:04:39;;;;;;;51.35;30.45;;;3.50;81.70;;;;;;5056048;28;20033;-67
2023/03/03 06:07:05;;;;;;;55.40;28.08;;;3.50;81.80;;;;;;5055668;28;20037;-68
2023/03/03 06:09:32;;;;;;;51.97;29.15;;;3.50;81.80;;;;;;5055529;28;20041;-67
2023/03/03 06:11:58;;;;;;;53.92;29.70;;;3.50;82.00;;;;;;5055647;28;20082;-67
2023/03/03 06:14:24;;;;;;;52.90;30.83;;;3.40;82.50;;;;;;5055096;28;20029;-67
2023/03/03 06:16:50;;;;;;;55.90;30.08;;;3.50;82.50;;;;;;5055333;28;20102;-67
2023/03/03 06:19:16;;;;;;;54.08;29.13;;;3.50;82.60;;;;;;5055290;28;20025;-68
2023/03/03 06:21:42;;;;;;;51.83;30.27;;;3.60;82.80;;;;;;5055769;28;20116;-67
2023/03/03 06:24:08;;;;;;;58.08;31.27;;;3.60;82.60;;;;;;5055321;28;20032;-67
2023/03/03 06:26:34;;;;;;;55.58;31.00;;;3.70;82.80;;;;;;5055381;28;20033;-67
2023/03/03 06:28:59;;;;;;;58.55;32.03;;;3.70;82.40;;;;;;5055186;28;20028;-66
2023/03/03 06:31:26;;;;;;;62.53;32.75;;;3.80;82.30;;;;;;5054948;28;20369;-67
2023/03/03 06:33:53;;;;;;;64.30;33.90;;;3.90;82.10;;;;;;5055200;28;20376;-67
2023/03/03 06:36:19;;;;;;;65.82;36.53;;;3.90;82.30;;;;;;5054781;28;20082;-67
2023/03/03 06:38:44;;;;;;;69.80;37.42;;;4.00;81.90;;;;;;5055189;28;20401;-67
2023/03/03 06:41:11;;;;;;;74.18;38.85;;;4.00;81.50;;;;;;5054508;28;20036;-71
2023/03/03 06:43:36;;;;;;;69.25;38.80;;;4.10;81.30;;;;;;5054701;28;20032;-68
2023/03/03 06:46:03;;;;;;;74.20;39.17;;;4.10;80.90;;;;;;5055093;28;20374;-67
2023/03/03 06:48:30;;;;;;;73.43;40.60;;;4.20;80.60;;;;;;5054849;28;20025;-67
2023/03/03 06:51:01;;;;;;;71.97;40.10;;;4.10;80.70;;;;;;5055355;28;20040;-68
2023/03/03 06:53:27;;;;;;;85.18;41.70;;;4.10;80.90;;;;;;5054801;28;20075;-67
2023/03/03 06:55:55;;;;;;;73.97;40.67;;;4.20;80.80;;;;;;5054795;28;20041;-66
2023/03/03 06:58:23;;;;;;;77.32;41.38;;;4.30;81.00;;;;;;5054658;28;20457;-68
2023/03/03 07:00:53;;;;;;;75.95;41.47;;;4.30;80.70;;;;;;5054595;28;20044;-67
2023/03/03 07:03:35;;;;;;;76.22;42.45;;;4.30;80.00;;;;;;5054376;28;20049;-68
2023/03/03 07:06:05;;;;;;;77.80;42.08;;;4.40;79.80;;;;;;5054724;28;20036;-68
2023/03/03 07:08:31;;;;;;;74.40;41.15;;;4.40;79.70;;;;;;5054420;28;20036;-68
2023/03/03 07:11:05;;;;;;;81.35;43.40;;;4.50;79.50;;;;;;5054565;28;20033;-68
2023/03/03 07:13:32;;;;;;;79.43;42.88;;;4.50;79.60;;;;;;5054100;28;20033;-68
2023/03/03 07:16:03;;;;;;;82.03;42.47;;;4.50;79.60;;;;;;5054669;28;20041;-66
2023/03/03 07:18:49;;;;;;;81.50;42.67;;;4.50;79.40;;;;;;5053848;28;20035;-68
2023/03/03 07:21:38;;;;;;;77.00;42.28;;;4.50;79.00;;;;;;5054175;28;20029;-67
2023/03/03 07:24:13;;;;;;;75.80;41.95;;;4.60;78.80;;;;;;5054462;28;20025;-67
2023/03/03 07:26:38;;;;;;;77.28;41.67;;;4.70;78.00;;;;;;5054088;28;20025;-66
2023/03/03 07:29:32;;;;;;;68.78;40.47;;;4.80;77.60;;;;;;5054417;28;20108;-67
2023/03/03 07:32:00;;;;;;;70.72;40.70;;;5.00;76.80;;;;;;5054269;28;20367;-69
2023/03/03 07:34:45;;;;;;;70.70;40.95;;;5.10;76.40;;;;;;5035857;28;20378;-68
2023/03/03 07:37:49;;;;;;;73.50;39.65;;;5.10;76.30;;;;;;5054184;28;20033;-68
2023/03/03 07:40:33;;;;;;;75.50;39.17;;;5.20;76.20;;;;;;4982076;28;20045;-68
2023/03/03 07:42:59;;;;;;;70.38;39.05;;;5.40;75.90;;;;;;5053890;28;20035;-68
2023/03/03 07:45:33;;;;;;;69.25;40.38;;;5.50;76.00;;;;;;5053183;28;20029;-68
2023/03/03 07:48:29;;;;;;;70.43;40.28;;;5.60;74.40;;;;;;5054190;28;20542;-68
2023/03/03 07:50:59;;;;;;;69.03;39.13;;;5.60;73.30;;;;;;5053472;28;20404;-68
2023/03/03 07:53:28;;;;;;;66.95;38.90;;;5.80;73.20;;;;;;5050439;28;20047;-67
2023/03/03 07:55:54;;;;;;;67.22;38.97;;;5.80;72.40;;;;;;5053766;28;20037;-67
2023/03/03 07:58:34;;;;;;;69.28;39.67;;;5.90;72.00;;;;;;5053015;28;20043;-68
2023/03/03 08:01:32;;;;;;;75.57;37.95;;;5.90;72.00;;;;;;5053716;28;20025;-67
2023/03/03 08:03:58;;;;;;;69.63;39.63;;;6.10;71.50;;;;;;4998836;28;20355;-68
2023/03/03 08:06:40;;;;;;;69.90;39.13;;;6.20;71.50;;;;;;5053315;28;20060;-68
2023/03/03 08:09:09;;;;;;;70.90;39.17;;;6.50;70.90;;;;;;5053336;28;20412;-68
2023/03/03 08:11:48;;;;;;;68.28;38.72;;;6.80;70.20;;;;;;5036007;28;20043;-68
2023/03/03 08:14:19;;;;;;;67.63;37.25;;;7.00;69.40;;;;;;5053779;28;20033;-68
2023/03/03 08:16:45;;;;;;;67.43;37.97;;;7.10;68.20;;;;;;5053443;28;20450;-67
2023/03/03 08:19:13;;;;;;;63.75;38.28;;;7.40;68.00;;;;;;5054628;28;20057;-67
2023/03/03 08:21:39;;;;;;;63.20;35.97;;;7.70;67.70;;;;;;5056861;28;20477;-67
2023/03/03 08:24:05;;;;;;;61.75;36.20;;;8.00;65.90;;;;;;5041371;28;20032;-67
2023/03/03 08:26:31;;;;;;;66.20;37.83;;;8.40;64.10;;;;;;5060264;28;20381;-68
2023/03/03 08:28:57;;;;;;;62.25;36.75;;;8.60;63.10;;;;;;5060424;28;20074;-69
2023/03/03 08:31:23;;;;;;;63.83;36.05;;;8.70;62.20;;;;;;5058232;28;20021;-68
2023/03/03 08:33:48;;;;;;;56.85;34.47;;;9.00;62.00;;;;;;5055439;28;20065;-68
2023/03/03 08:36:14;;;;;;;59.42;34.10;;;9.20;60.50;;;;;;5055167;28;20542;-67
2023/03/03 08:38:40;;;;;;;55.05;33.55;;;9.40;59.90;;;;;;5055417;28;20130;-69
2023/03/03 08:41:06;;;;;;;61.10;34.28;;;9.60;59.10;;;;;;5054580;28;20516;-68
2023/03/03 08:43:31;;;;;;;55.10;32.95;;;9.70;57.90;;;;;;5052425;28;20029;-68
2023/03/03 08:46:00;;;;;;;54.40;33.10;;;9.70;57.50;;;;;;5053833;28;20111;-68
2023/03/03 08:48:27;;;;;;;56.38;33.80;;;9.80;57.30;;;;;;5052676;28;20025;-68
2023/03/03 08:50:53;;;;;;;58.60;33.33;;;9.90;57.50;;;;;;5053026;28;20021;-68
2023/03/03 08:53:19;;;;;;;57.28;33.92;;;9.80;58.10;;;;;;5053066;28;20075;-68
2023/03/03 08:55:46;;;;;;;55.35;33.20;;;10.00;58.40;;;;;;5052887;28;20041;-69
2023/03/03 08:58:12;;;;;;;55.28;31.90;;;10.20;57.30;;;;;;5052649;28;20358;-68
2023/03/03 09:00:38;;;;;;;50.75;32.78;;;10.20;57.10;;;;;;5052275;28;20429;-68
2023/03/03 09:03:07;;;;;;;55.60;33.08;;;10.20;56.90;;;;;;5051977;28;20060;-69
2023/03/03 09:05:34;;;;;;;56.92;33.08;;;10.30;56.50;;;;;;5052209;28;20032;-68
2023/03/03 09:08:00;;;;;;;58.92;33.05;;;10.30;56.80;;;;;;5052645;28;20453;-69
2023/03/03 09:10:28;;;;;;;58.60;33.63;;;10.20;56.30;;;;;;5052515;28;20083;-68
2023/03/03 09:12:57;;;;;;;54.58;32.72;;;10.30;57.10;;;;;;5052536;28;20029;-68
2023/03/03 09:15:31;;;;;;;60.63;34.50;;;10.50;55.90;;;;;;5052132;28;20029;-68
2023/03/03 09:18:01;;;;;;;58.08;35.40;;;10.60;54.90;;;;;;5052626;28;20465;-68
2023/03/03 09:20:40;;;;;;;51.92;32.47;;;10.80;55.80;;;;;;5051979;28;20028;-68
2023/03/03 09:23:33;;;;;;;51.00;32.30;;;11.00;55.20;;;;;;5052456;28;20036;-67
2023/03/03 09:26:21;;;;;;;55.78;33.08;;;11.20;55.10;;;;;;5034525;28;20025;-67
2023/03/03 09:28:47;;;;;;;50.92;31.55;;;11.20;53.90;;;;;;5052913;28;20107;-67
2023/03/03 09:31:25;;;;;;;55.60;30.63;;;11.40;54.30;;;;;;5052421;28;20112;-68
2023/03/03 09:33:56;;;;;;;52.38;31.33;;;11.60;54.10;;;;;;5052390;28;20400;-68
2023/03/03 09:36:24;;;;;;;;;;;11.70;53.30;;;;;;5052820;28;20037;-67
2023/03/03 09:38:49;;;;;;;54.22;30.88;;;11.80;53.00;;;;;;5052277;28;20337;-68
2023/03/03 09:41:43;;;;;;;54.70;32.10;;;12.00;53.10;;;;;;5052133;28;20029;-68
2023/03/03 09:44:16;;;;;;;49.95;30.73;;;12.00;52.00;;;;;;5052432;28;20020;-68
2023/03/03 09:46:59;;;;;;;48.30;28.17;;;12.10;52.70;;;;;;5051857;28;20113;-70
2023/03/03 09:49:37;;;;;;;46.42;28.67;;;12.00;50.80;;;;;;5051754;28;20075;-69
2023/03/03 09:52:03;;;;;;;50.42;29.38;;;12.00;51.10;;;;;;5052125;28;20469;-68
2023/03/03 09:54:37;;;;;;;47.80;29.55;;;11.90;51.10;;;;;;5051633;28;20029;-69
2023/03/03 09:57:12;;;;;;;53.50;29.23;;;11.90;51.20;;;;;;5046991;28;20021;-68
2023/03/03 10:00:16;;;;;;;45.10;27.83;;;12.00;51.90;;;;;;5032045;28;20029;-67
2023/03/03 10:03:03;;;;;;;45.00;28.40;;;12.10;51.60;;;;;;4987683;28;20037;-67
2023/03/03 10:05:32;;;;;;;49.95;29.65;;;11.90;51.40;;;;;;5051407;28;20408;-67
2023/03/03 10:08:27;;;;;;;47.35;29.40;;;12.00;51.60;;;;;;5052091;28;20103;-67
2023/03/03 10:11:41;;;;;;;48.30;29.52;;;12.10;51.40;;;;;;5051781;28;20030;-67
2023/03/03 10:14:31;;;;;;;42.47;27.60;;;12.40;51.70;;;;;;5054038;28;20090;-68
2023/03/03 10:17:41;;;;;;;45.92;28.73;;;12.50;50.60;;;;;;5055467;28;20029;-69
2023/03/03 10:20:35;;;;;;;45.33;28.67;;;12.30;49.60;;;;;;5050551;28;20037;-68
2023/03/03 10:23:04;;;;;;;45.38;29.02;;;12.00;50.50;;;;;;5037853;28;20051;-69
2023/03/03 10:26:02;;;;;;;48.90;28.58;;;12.00;50.20;;;;;;5055171;28;20029;-67
2023/03/03 10:29:02;;;;;;;47.17;28.10;;;12.10;51.40;;;;;;5037874;28;20037;-69
2023/03/03 10:31:39;;;;;;;47.70;28.52;;;12.20;50.50;;;;;;5001255;28;20041;-68
2023/03/03 10:34:38;;;;;;;46.42;28.08;;;12.40;49.70;;;;;;5055315;28;20040;-68
2023/03/03 10:37:12;;;;;;;47.42;26.90;;;12.40;49.30;;;;;;5055437;28;20066;-67
2023/03/03 10:40:09;;;;;;;47.22;27.98;;;12.30;49.70;;;;;;5054467;28;20045;-67
2023/03/03 10:42:59;;;;;;;42.78;25.90;;;12.30;48.90;;;;;;5054925;28;20029;-68
2023/03/03 10:45:36;;;;;;;46.03;28.02;;;12.30;48.60;;;;;;5054980;28;20330;-68
2023/03/03 10:48:08;;;;;;;47.00;26.90;;;12.20;48.60;;;;;;5054820;28;20029;-68
2023/03/03 10:50:52;;;;;;;;;;;12.20;48.90;;;;;;5054952;28;20028;-69
2023/03/03 10:53:43;;;;;;;49.33;25.83;;;12.50;50.30;;;;;;5054894;28;19905;-68
2023/03/03 10:56:09;;;;;;;49.40;28.13;;;12.60;48.40;;;;;;5010003;28;20049;-68
2023/03/03 10:58:44;;;;;;;49.22;25.30;;;12.60;48.80;;;;;;5054347;28;20415;-68
2023/03/03 11:01:45;;;;;;;44.72;27.45;;;12.60;48.50;;;;;;5054806;28;20017;-68
2023/03/03 11:04:19;;;;;;;43.92;27.40;;;12.50;48.70;;;;;;5054801;28;20457;-68
2023/03/03 11:06:51;;;;;;;40.05;25.88;;;12.60;49.00;;;;;;5054375;28;20043;-68
2023/03/03 11:09:42;;;;;;;41.30;26.48;;;12.70;48.50;;;;;;5054684;28;20453;-68
2023/03/03 11:12:46;;;;;;;45.63;25.92;;;12.90;48.40;;;;;;5016814;28;20033;-68
2023/03/03 11:15:24;;;;;;;47.67;24.67;;;12.80;48.00;;;;;;5003745;28;20040;-68
2023/03/03 11:18:17;;;;;;;44.65;25.23;;;12.90;47.90;;;;;;5054327;28;20440;-69
2023/03/03 11:20:51;;;;;;;36.92;23.45;;;13.10;47.30;;;;;;5054583;28;20101;-68
2023/03/03 11:24:02;;;;;;;38.05;23.77;;;13.20;46.00;;;;;;5054666;28;20075;-68
2023/03/03 11:26:41;;;;;;;45.20;25.30;;;13.20;45.60;;;;;;5015868;28;20040;-68
2023/03/03 11:29:13;;;;;;;40.35;24.88;;;13.10;45.20;;;;;;5054787;28;20036;-68
2023/03/03 11:31:47;;;;;;;40.20;23.70;;;13.20;45.90;;;;;;5053758;28;20047;-68
2023/03/03 11:34:31;;;;;;;40.05;23.23;;;13.40;46.10;;;;;;5054428;28;20033;-68
2023/03/03 11:37:06;;;;;;;40.83;25.13;;;13.30;45.40;;;;;;5054193;28;20037;-68
2023/03/03 11:39:32;;;;;;;45.25;25.92;;;13.30;45.80;;;;;;5053481;28;20041;-69
2023/03/03 11:42:12;;;;;;;43.72;25.83;;;13.60;46.60;;;;;;5054471;28;20369;-69
2023/03/03 11:44:42;;;;;;;41.70;26.10;;;13.70;46.40;;;;;;5053811;28;20420;-69
2023/03/03 11:47:21;;;;;;;43.35;25.30;;;13.70;45.60;;;;;;5054113;28;20048;-68
2023/03/03 11:50:02;;;;;;;45.08;26.75;;;13.70;45.40;;;;;;5053480;28;20389;-68
2023/03/03 11:52:42;;;;;;;46.30;27.23;;;13.70;45.20;;;;;;5053678;28;20465;-68
2023/03/03 11:55:14;;;;;;;42.35;25.60;;;13.80;45.10;;;;;;5053475;28;20037;-68
2023/03/03 11:57:51;;;;;;;43.10;27.40;;;13.70;44.80;;;;;;5035705;28;20029;-68
2023/03/03 12:00:27;;;;;;;36.25;22.20;;;13.70;45.00;;;;;;5053649;28;20052;-68
2023/03/03 12:03:13;;;;;;;38.13;23.17;;;13.70;44.60;;;;;;5053357;28;20025;-69
2023/03/03 12:06:01;;;;;;;39.78;23.52;;;13.70;44.60;;;;;;5051416;28;20033;-69
2023/03/03 12:08:38;;;;;;;35.50;22.08;;;13.70;44.80;;;;;;5051245;28;20029;-68
2023/03/03 12:11:13;;;;;;;32.35;21.30;;;13.80;44.40;;;;;;5035641;28;20029;-68
2023/03/03 12:13:39;;;;;;;35.22;21.73;;;13.70;43.30;;;;;;5053133;28;20036;-68
2023/03/03 12:16:46;;;;;;;40.47;22.15;;;13.50;43.80;;;;;;5053278;28;20040;-68
2023/03/03 12:19:43;;;;;;;37.97;21.67;;;13.50;44.50;;;;;;5019455;28;20124;-68
2023/03/03 12:22:12;;;;;;;37.03;23.17;;;13.60;45.30;;;;;;5053505;28;20025;-69
2023/03/03 12:24:40;;;;;;;36.95;23.33;;;13.90;45.50;;;;;;5052625;28;20021;-69
2023/03/03 12:27:28;;;;;;;38.00;23.00;;;14.00;44.10;;;;;;5053278;28;20025;-69
2023/03/03 12:29:59;;;;;;;39.20;23.98;;;14.00;45.00;;;;;;5052808;28;20029;-68
2023/03/03 12:32:55;;;;;;;38.88;24.15;;;14.00;44.00;;;;;;5052995;28;20385;-67
2023/03/03 12:35:36;;;;;;;38.97;23.88;;;14.00;44.40;;;;;;5053025;28;20060;-67
2023/03/03 12:38:04;;;;;;;37.38;23.67;;;13.80;44.20;;;;;;5052676;28;20057;-68
2023/03/03 12:40:56;;;;;;;42.88;25.30;;;13.70;44.00;;;;;;5053121;28;20067;-68
2023/03/03 12:43:28;;;;;;;38.47;24.15;;;13.60;44.20;;;;;;5053037;28;20041;-68
2023/03/03 12:46:18;;;;;;;34.50;22.52;;;13.40;44.80;;;;;;5052790;28;20157;-68
2023/03/03 12:48:46;;;;;;;37.17;22.63;;;13.40;44.20;;;;;;5052801;28;20036;-68
2023/03/03 12:51:36;;;;;;;41.53;23.30;;;13.30;44.30;;;;;;5052539;28;20032;-68
2023/03/03 12:54:19;;;;;;;37.88;22.83;;;13.20;45.50;;;;;;5052874;28;20096;-68
2023/03/03 12:56:59;;;;;;;37.55;22.70;;;13.10;46.10;;;;;;5052104;28;20029;-68
2023/03/03 12:59:45;;;;;;;38.17;23.45;;;13.10;45.80;;;;;;5052756;28;20465;-68
2023/03/03 13:02:37;;;;;;;36.15;21.75;;;13.10;45.70;;;;;;5052835;28;20032;-68